This demonstration page uses our WeatherBlox Daily Observations layout. Learn more.

38.89511, -77.03637

Hourly Observations for June 5, 2018

Temp ( °F °C ) Dew Point ( °F °C ) Humidity (%) Winds ( mph kmh ) Pressure ( in mb ) Visibility ( mi km ) Precip ( " mm )
12:52 am 00:52 Mostly Clear 68 20 51 10.6 55 55 WNW 6 9 29.8 1009 10 16.09344 0 0
1:52 am 01:52 Mostly Clear 66 18.9 51 10.6 59 59 WNW 6 9 29.8 1009 10 16.09344 0 0
2:52 am 02:52 Clear 66 18.9 51 10.6 59 59 W 5 7 29.8 1009 10 16.09344 0 0
3:52 am 03:52 Clear 63 17.2 53 11.7 70 70 NNE 5 7 29.8 1009 10 16.09344 0 0
4:52 am 04:52 Clear 62 16.7 52 11.1 70 70 SSW 3 6 29.8 1009 10 16.09344 0 0
5:52 am 05:52 Mostly Sunny 61 16.1 52 11.1 72 72 SSW 3 6 29.8 1009 10 16.09344 0 0
6:52 am 06:52 Mostly Sunny 63 17.2 55 12.8 76 76 SSW 3 6 29.83 1010 10 16.09344 0 0
7:52 am 07:52 Mostly Sunny 65 18.3 58 14.4 78 78 S 8 13 29.83 1010 10 16.09344 0 0
8:52 am 08:52 Partly Cloudy 69 20.6 58 14.4 68 68 S 8 13 29.83 1010 10 16.09344 0 0
9:52 am 09:52 Mostly Sunny 75 23.9 54 12.2 48 48 SW 10 17 29.8 1009 10 16.09344 0 0
10:52 am 10:52 Mostly Sunny 77 25 52 11.1 42 42 W 8 13 29.8 1009 10 16.09344 0 0
11:52 am 11:52 Partly Cloudy 79 26.1 53 11.7 41 41 SW 12 19 29.77 1008 10 16.09344 0 0
12:52 pm 12:52 Partly Cloudy 80 26.7 52 11.1 38 38 WSW 15 24 29.74 1007 10 16.09344 0 0
1:52 pm 13:52 Mostly Cloudy 80 26.7 53 11.7 39 39 W 12 19 29.74 1007 10 16.09344 0 0
2:52 pm 14:52 Mostly Cloudy 83 28.3 54 12.2 37 37 W 13 20 29.71 1006 10 16.09344 0 0
3:52 pm 15:52 Mostly Cloudy 82 27.8 51 10.6 34 34 WNW 15 24 29.68 1005 10 16.09344 0 0
4:52 pm 16:52 Mostly Cloudy 81 27.2 52 11.1 37 37 W 15 24 29.68 1005 10 16.09344 0 0
5:52 pm 17:52 Mostly Cloudy 80 26.7 52 11.1 38 38 W 12 19 29.68 1005 10 16.09344 0 0
6:52 pm 18:52 Mostly Cloudy 78 25.6 53 11.7 42 42 W 12 19 29.68 1005 10 16.09344 0 0
7:52 pm 19:52 Mostly Cloudy 77 25 52 11.1 42 42 W 13 20 29.71 1006 10 16.09344 0 0
8:52 pm 20:52 Mostly Cloudy 76 24.4 50 10 40 40 W 13 20 29.71 1006 10 16.09344 0 0
9:52 pm 21:52 Cloudy 70 21.1 53 11.7 55 55 N 20 31 29.77 1008 10 16.09344 0 0
10:52 pm 22:52 Cloudy 68 20 55 12.8 63 63 N 6 9 29.74 1007 10 16.09344 0 0
11:52 pm 23:52 Mostly Cloudy 68 20 54 12.2 61 61 W 6 9 29.74 1007 10 16.09344 0 0

Powered by AerisWeather